createdAt,value
2019-06-10T00:01:58.017Z,4.65
2019-06-10T00:07:05.815Z,4.65
2019-06-10T00:12:13.107Z,3.92
2019-06-10T00:17:21.398Z,4.03
2019-06-10T00:22:28.014Z,1.80
2019-06-10T00:27:34.494Z,3.70
2019-06-10T00:32:42.224Z,2.83
2019-06-10T00:37:51.075Z,5.28
2019-06-10T00:42:57.049Z,4.08
2019-06-10T00:48:12.417Z,6.95
2019-06-10T00:53:14.427Z,5.55
2019-06-10T00:58:21.650Z,3.10
2019-06-10T01:03:31.137Z,6.03
2019-06-10T01:08:37.044Z,6.58
2019-06-10T01:13:44.755Z,3.08
2019-06-10T01:18:53.577Z,5.25
2019-06-10T01:24:01.183Z,4.78
2019-06-10T01:29:08.019Z,4.12
2019-06-10T01:34:15.128Z,7.40
2019-06-10T01:39:22.624Z,3.10
2019-06-10T01:44:30.997Z,2.72
2019-06-10T01:49:37.623Z,5.10
2019-06-10T01:54:44.630Z,7.92
2019-06-10T01:59:51.241Z,6.95
2019-06-10T02:04:57.801Z,3.77
2019-06-10T02:10:05.120Z,6.20
2019-06-10T02:15:12.597Z,3.50
2019-06-10T02:20:23.506Z,3.90
2019-06-10T02:25:30.495Z,5.67
2019-06-10T02:30:45.697Z,4.47
2019-06-10T02:35:49.019Z,4.72
2019-06-10T02:40:54.112Z,5.75
2019-06-10T02:46:03.928Z,7.72
2019-06-10T02:51:13.080Z,5.75
2019-06-10T02:56:19.968Z,9.13
2019-06-10T03:01:30.629Z,5.78
2019-06-10T03:06:39.843Z,4.53
2019-06-10T03:11:44.898Z,4.60
2019-06-10T03:16:56.815Z,6.22
2019-06-10T03:22:03.444Z,5.08
2019-06-10T03:27:09.997Z,4.08
2019-06-10T03:32:17.673Z,5.40
2019-06-10T03:37:27.234Z,7.62
2019-06-10T03:42:33.027Z,7.03
2019-06-10T03:47:39.653Z,5.22
2019-06-10T03:52:46.350Z,6.28
2019-06-10T03:57:52.909Z,4.28
2019-06-10T04:02:59.539Z,7.55
2019-06-10T04:08:06.171Z,9.28
2019-06-10T04:13:13.188Z,5.40
2019-06-10T04:18:20.253Z,7.87
2019-06-10T04:23:28.443Z,5.62
2019-06-10T04:28:34.933Z,7.97
2019-06-10T04:33:42.130Z,8.80
2019-06-10T04:38:48.984Z,11.70
2019-06-10T04:43:55.555Z,8.45
2019-06-10T04:49:02.872Z,6.45
2019-06-10T04:54:09.465Z,7.67
2019-06-10T04:59:16.095Z,10.88
2019-06-10T05:04:24.074Z,7.50
2019-06-10T05:09:33.318Z,7.10
2019-06-10T05:14:39.181Z,6.92
2019-06-10T05:19:45.842Z,6.33
2019-06-10T05:24:52.769Z,4.42
2019-06-10T05:29:59.326Z,6.08
2019-06-10T05:35:06.503Z,4.95
2019-06-10T05:40:13.430Z,3.77
2019-06-10T05:45:20.072Z,9.88
2019-06-10T05:50:26.873Z,5.47
2019-06-10T05:55:35.102Z,7.83
2019-06-10T06:00:42.902Z,7.37
2019-06-10T06:05:49.638Z,6.67
2019-06-10T06:10:56.128Z,5.12
2019-06-10T06:16:03.499Z,4.95
2019-06-10T06:21:23.730Z,7.62
2019-06-10T06:26:18.771Z,4.83
2019-06-10T06:31:26.173Z,6.10
2019-06-10T06:36:33.772Z,5.20
2019-06-10T06:41:42.715Z,5.33
2019-06-10T06:46:49.722Z,7.00
2019-06-10T06:51:59.345Z,4.58
2019-06-10T06:57:05.699Z,3.50
2019-06-10T07:02:12.501Z,6.20
2019-06-10T07:07:22.205Z,5.28
2019-06-10T07:12:33.361Z,5.53
2019-06-10T07:17:40.735Z,5.90
2019-06-10T07:22:47.740Z,4.60
2019-06-10T07:27:54.647Z,4.60
2019-06-10T07:33:02.943Z,5.12
2019-06-10T07:38:12.105Z,4.87
2019-06-10T07:43:18.081Z,3.33
2019-06-10T07:48:24.748Z,4.40
2019-06-10T07:53:33.197Z,5.55
2019-06-10T07:58:44.409Z,3.25
2019-06-10T08:04:08.200Z,4.35
2019-06-10T08:09:15.025Z,5.08
2019-06-10T08:14:22.274Z,3.72
2019-06-10T08:19:34.870Z,6.35
2019-06-10T08:24:37.376Z,3.27
2019-06-10T08:29:47.510Z,3.60
2019-06-10T08:34:53.050Z,4.72
2019-06-10T08:40:03.797Z,3.00
2019-06-10T08:45:12.537Z,4.30
2019-06-10T08:50:22.275Z,4.67
2019-06-10T08:55:27.745Z,5.92
2019-06-10T09:00:34.897Z,4.60
2019-06-10T09:05:46.055Z,5.03
2019-06-10T09:10:54.187Z,4.78
2019-06-10T09:16:10.843Z,2.98
2019-06-10T09:21:06.969Z,6.25
2019-06-10T09:26:14.029Z,6.53
2019-06-10T09:31:22.960Z,5.00
2019-06-10T09:36:28.857Z,4.72
2019-06-10T09:41:40.072Z,5.33
2019-06-10T09:46:48.617Z,4.42
2019-06-10T09:51:57.328Z,8.40
2019-06-10T09:57:02.593Z,6.10
2019-06-10T10:02:12.466Z,6.28
2019-06-10T10:07:19.348Z,6.08
2019-06-10T10:12:26.017Z,5.03
2019-06-10T10:17:33.366Z,5.47
2019-06-10T10:22:42.738Z,4.97
2019-06-10T10:27:51.232Z,4.65
2019-06-10T10:32:57.324Z,5.33
2019-06-10T10:38:03.968Z,7.40
2019-06-10T10:43:25.272Z,4.17
2019-06-10T10:48:18.921Z,6.87
2019-06-10T10:53:25.554Z,6.15
2019-06-10T10:58:33.168Z,5.70
2019-06-10T11:03:42.892Z,5.85
2019-06-10T11:08:48.422Z,7.87
2019-06-10T11:13:58.498Z,7.45
2019-06-10T11:19:05.372Z,8.60
2019-06-10T11:24:14.271Z,5.40
2019-06-10T11:29:20.328Z,3.75
2019-06-10T11:34:26.944Z,4.00
2019-06-10T11:39:36.611Z,6.28
2019-06-10T11:44:42.495Z,5.90
2019-06-10T11:49:49.233Z,3.75
2019-06-10T11:55:10.635Z,5.30
2019-06-10T12:00:13.606Z,4.33
2019-06-10T12:05:16.487Z,5.60
2019-06-10T12:10:24.018Z,6.50
2019-06-10T12:15:51.927Z,5.15
2019-06-10T12:20:39.029Z,4.28
2019-06-10T12:25:47.924Z,7.00
2019-06-10T12:30:58.277Z,3.58
2019-06-10T12:36:06.593Z,4.70
2019-06-10T12:41:13.802Z,5.78
2019-06-10T12:46:19.286Z,4.30
2019-06-10T12:51:25.781Z,5.05
2019-06-10T12:56:32.807Z,5.78
2019-06-10T13:01:39.935Z,5.90
2019-06-10T13:06:49.378Z,6.53
2019-06-10T13:11:56.065Z,3.70
2019-06-10T13:17:04.454Z,6.72
2019-06-10T13:22:12.520Z,4.60
2019-06-10T13:27:19.329Z,7.72
2019-06-10T13:32:25.910Z,4.75
2019-06-10T13:37:32.573Z,8.00
2019-06-10T13:42:39.151Z,4.75
2019-06-10T13:47:45.995Z,7.70
2019-06-10T13:52:53.329Z,6.90
2019-06-10T13:58:01.806Z,5.92
2019-06-10T14:03:11.220Z,8.15
2019-06-10T14:08:23.600Z,8.15
2019-06-10T14:13:32.894Z,9.43
2019-06-10T14:18:39.476Z,6.92
2019-06-10T14:23:46.086Z,10.43
2019-06-10T14:28:52.861Z,5.95
2019-06-10T14:33:59.427Z,8.40
2019-06-10T14:39:08.503Z,7.53
2019-06-10T14:44:17.792Z,7.17
2019-06-10T14:49:23.502Z,6.28
2019-06-10T14:54:32.258Z,7.15
2019-06-10T14:59:38.884Z,9.85
2019-06-10T15:04:45.501Z,7.47
2019-06-10T15:09:52.637Z,8.45
2019-06-10T15:14:59.450Z,9.70
2019-06-10T15:20:07.434Z,8.20
2019-06-10T15:25:17.098Z,7.45
2019-06-10T15:30:27.105Z,9.65
2019-06-10T15:35:32.778Z,10.03
2019-06-10T15:40:39.343Z,9.35
2019-06-10T15:45:45.869Z,8.83
2019-06-10T15:50:52.636Z,7.92
2019-06-10T15:56:17.030Z,10.35
2019-06-10T16:01:07.707Z,10.23
2019-06-10T16:06:14.521Z,7.92
2019-06-10T16:11:25.472Z,7.75
2019-06-10T16:16:29.512Z,9.18
2019-06-10T16:21:38.367Z,11.73
2019-06-10T16:26:44.529Z,7.60
2019-06-10T16:31:52.879Z,11.03
2019-06-10T16:37:02.228Z,6.75
2019-06-10T16:42:13.312Z,10.60
2019-06-10T16:47:21.757Z,7.95
2019-06-10T16:52:30.364Z,13.40
2019-06-10T16:57:37.015Z,8.53
2019-06-10T17:02:43.667Z,10.32
2019-06-10T17:07:52.443Z,7.78
2019-06-10T17:13:03.909Z,8.28
2019-06-10T17:18:12.957Z,8.78
2019-06-10T17:23:26.453Z,7.90
2019-06-10T17:28:36.584Z,6.33
2019-06-10T17:33:44.320Z,9.30
2019-06-10T17:38:52.336Z,14.50
2019-06-10T17:44:02.512Z,8.05
2019-06-10T17:49:08.820Z,7.53
2019-06-10T17:54:15.613Z,9.78
2019-06-10T17:59:24.102Z,11.22
2019-06-10T18:04:32.106Z,7.10
2019-06-10T18:09:40.296Z,7.55
2019-06-10T18:14:46.977Z,8.90
2019-06-10T18:19:53.800Z,8.28
2019-06-10T18:25:02.885Z,11.25
2019-06-10T18:30:14.138Z,8.35
2019-06-10T18:35:22.208Z,10.90
2019-06-10T18:40:29.425Z,28.35
2019-06-10T18:45:38.288Z,20.55
2019-06-10T18:50:44.661Z,19.77
2019-06-10T18:55:54.030Z,18.10
2019-06-10T19:01:05.188Z,11.25
2019-06-10T19:06:09.060Z,9.43
2019-06-10T19:11:15.576Z,4.22
2019-06-10T19:16:23.423Z,5.90
2019-06-10T19:21:30.395Z,11.85
2019-06-10T19:26:44.831Z,4.22
2019-06-10T19:31:48.871Z,5.45
2019-06-10T19:36:55.422Z,3.17
2019-06-10T19:42:02.798Z,3.70
2019-06-10T19:47:09.707Z,3.67
2019-06-10T19:52:16.337Z,4.15
2019-06-10T19:57:24.064Z,6.47
2019-06-10T20:02:32.624Z,5.08
2019-06-10T20:07:43.049Z,4.22
2019-06-10T20:12:47.416Z,3.60
2019-06-10T20:17:54.407Z,6.20
2019-06-10T20:23:03.041Z,6.47
2019-06-10T20:28:09.365Z,9.00
2019-06-10T20:33:33.074Z,4.90
2019-06-10T20:38:38.450Z,7.17
2019-06-10T20:43:47.148Z,4.62
2019-06-10T20:48:54.492Z,5.62
2019-06-10T20:54:02.766Z,3.08
2019-06-10T20:59:09.522Z,6.97
2019-06-10T21:04:16.144Z,6.40
2019-06-10T21:09:23.900Z,4.00
2019-06-10T21:14:32.958Z,3.33
2019-06-10T21:19:38.701Z,2.60
2019-06-10T21:24:46.585Z,4.30
2019-06-10T21:29:54.716Z,3.67
2019-06-10T21:35:03.065Z,4.58
2019-06-10T21:40:10.058Z,3.87
2019-06-10T21:45:17.024Z,5.70
2019-06-10T21:50:24.636Z,6.42
2019-06-10T21:55:33.224Z,10.48
2019-06-10T22:00:55.630Z,7.30
2019-06-10T22:05:56.584Z,8.05
2019-06-10T22:11:03.092Z,7.85
2019-06-10T22:16:10.852Z,8.35
2019-06-10T22:21:17.465Z,9.10
2019-06-10T22:26:24.043Z,9.68
2019-06-10T22:31:32.638Z,15.23
2019-06-10T22:36:38.877Z,14.47
2019-06-10T22:41:45.394Z,12.03
2019-06-10T22:46:53.551Z,12.40
2019-06-10T22:52:00.431Z,9.63
2019-06-10T22:57:07.114Z,9.03
2019-06-10T23:02:13.755Z,12.70
2019-06-10T23:07:22.894Z,12.88
2019-06-10T23:12:28.832Z,10.40
2019-06-10T23:17:35.334Z,14.20
2019-06-10T23:22:41.921Z,14.65
2019-06-10T23:27:49.942Z,21.65
2019-06-10T23:32:58.117Z,20.82
2019-06-10T23:38:05.374Z,16.32
2019-06-10T23:43:13.170Z,28.47
2019-06-10T23:48:22.536Z,31.55
2019-06-10T23:53:28.416Z,18.10
2019-06-10T23:58:35.062Z,20.43
